KAXS/AXS METAR and TAF weather

Enter ICAO airport designator
Station Type Date Time Source
KAXS METAR 2018/12/11 13:15 UTC NOAA

KAXS 111315Z AUTO 12004KT 7SM CLR M02/M03 A3023 RMK AO2 T10171033


Station Type Date Time Source
KAXS Decoded METAR 2018/12/11 13:15 UTC NOAA

Altus, Altus/Quartz Mountain Regional Airport, OK, United States (KAXS) 34-41-55N 099-20-17W
Dec 11, 2018 - 08:15 AM EST / 2018.12.11 1315 UTC
Wind: from the ESE (120 degrees) at 5 MPH (4 KT):0
Visibility: 7 mile(s):0
Sky conditions: clear
Temperature: 28.9 F (-1.7 C)
Windchill: 23 F (-5 C):1
Dew Point: 26.1 F (-3.3 C)
Relative Humidity: 88%
Pressure (altimeter): 30.23 in. Hg (1023 hPa)
ob: KAXS 111315Z AUTO 12004KT 7SM CLR M02/M03 A3023 RMK AO2 T10171033
cycle: 13

Station Type Date Time Source
KAXS TAF UTC NOAA

Error!


Example: see airport list